Tibshelf, United Kingdom
Current Conditions -  °F | °C
As of 8:20 PM on Friday 21 Nov 2014 (Local Time) from EGNX Reporting Station
Moderate Rain Moderate Rain  
Wind Chill: 42°   Ceiling: 500
Heat Index: 46°   Visibility: 4mi
Dew Point: 45°   Wind: 8mph
Humidity: 93%   Direction: 120°ESE
Pressure: 29.91"   Gusts: NA
Location:  53.14°N, 1.34°W
Report Text: EGNX 212020Z 12007KT 090V180 6000 RA BKN005 08/07 Q1013
Loading
Personal Weather Stations






























Interactive Weather Map New forecast layout! Learn more

10-Day Weather Forecast

Advertisements
Track Severe Weather on mobile